Terminal Aerodrome Forecast
Issued by NWS

Home | Current Version | Previous Version | Text Only | Print | Product List | Glossary On
Versions: 1 2 3 4 5 6 7 8 9 10 11 12 13 14 15 16 17
000
FTUS46 KMTR 250528
TAFSNS
TAF
KSNS 250528Z 2506/2606 29006KT P6SM FEW015
     FM250900 VRB04KT 6SM BR BKN010
     FM251600 12005KT P6SM SCT015
     FM251800 29005KT P6SM FEW010 FEW200
     FM252100 28012KT P6SM SKC
     FM260300 29008KT P6SM SCT015 SCT200=

USA.gov is the U.S. government's official web portal to all federal, state and local government web resources and services.